Time;durP1;ratioP1;P1;durP2;ratioP2;P2;SDS_P1;SDS_P2;PMS_P1;PMS_P2;Temp;Humidity;BMP_temperature;BMP_pressure;BME280_temperature;BME280_humidity;BME280_pressure;Samples;Min_cycle;Max_cycle;Signal;HPM_P1;HPM_P2
2022/03/07 00:01:50;;;;;;;;;21.75;18.75;;;;;20.92;26.94;101795.34;5078957;27;45399;-49
2022/03/07 00:04:17;;;;;;;;;20.00;17.50;;;;;20.90;27.25;101782.19;5078145;28;45557;-47
2022/03/07 00:06:43;;;;;;;;;20.75;19.75;;;;;20.89;26.78;101784.91;5078470;27;46208;-49
2022/03/07 00:09:09;;;;;;;;;19.50;18.25;;;;;20.88;26.83;101777.94;5078506;28;45354;-46
2022/03/07 00:11:35;;;;;;;;;18.25;18.00;;;;;20.87;27.02;101778.84;5078783;27;45413;-49
2022/03/07 00:14:01;;;;;;;;;16.75;15.25;;;;;20.85;26.79;101781.56;5078806;27;45469;-49
2022/03/07 00:16:27;;;;;;;;;19.00;18.75;;;;;20.83;27.02;101776.34;5077077;28;47344;-52
2022/03/07 00:18:52;;;;;;;;;18.75;15.00;;;;;20.82;26.72;101781.66;5077412;27;45735;-48
2022/03/07 00:21:19;;;;;;;;;19.50;16.50;;;;;20.80;26.54;101776.47;5076952;27;45471;-47
2022/03/07 00:23:45;;;;;;;;;22.50;20.25;;;;;20.80;26.90;101778.25;5079045;27;45476;-47
2022/03/07 00:26:10;;;;;;;;;20.50;20.50;;;;;20.76;26.74;101777.50;5078322;28;45883;-46
2022/03/07 00:28:35;;;;;;;;;22.00;18.00;;;;;20.76;27.26;101789.84;5078464;27;45335;-46
2022/03/07 00:31:01;;;;;;;;;20.00;19.25;;;;;20.73;27.10;101774.97;5077091;28;45741;-50
2022/03/07 00:33:26;;;;;;;;;17.00;16.50;;;;;20.73;27.23;101784.66;5077433;28;45232;-48
2022/03/07 00:35:52;;;;;;;;;18.50;17.75;;;;;20.70;26.71;101786.50;5078196;27;46037;-47
2022/03/07 00:38:18;;;;;;;;;20.75;20.25;;;;;20.69;27.11;101787.41;5077270;28;45760;-45
2022/03/07 00:40:43;;;;;;;;;20.75;17.50;;;;;20.67;27.17;101786.59;5078666;27;45461;-48
2022/03/07 00:43:09;;;;;;;;;23.75;21.50;;;;;20.64;26.60;101780.63;5078517;27;45564;-50
2022/03/07 00:45:34;;;;;;;;;19.50;19.50;;;;;20.64;26.78;101784.13;5077895;27;46213;-48
2022/03/07 00:48:00;;;;;;;;;20.50;19.75;;;;;20.63;26.96;101792.06;5078101;27;45227;-47
2022/03/07 00:50:25;;;;;;;;;23.50;21.50;;;;;20.60;26.83;101785.16;5077989;27;45393;-49
2022/03/07 00:52:51;;;;;;;;;15.75;15.75;;;;;20.59;27.10;101786.06;5078306;27;45350;-47
2022/03/07 00:55:16;;;;;;;;;18.00;16.75;;;;;20.55;27.02;101780.06;5078246;27;45563;-50
2022/03/07 00:57:42;;;;;;;;;20.75;19.75;;;;;20.55;26.73;101787.13;5077813;27;45460;-49
2022/03/07 01:00:08;;;;;;;;;23.75;19.25;;;;;20.53;27.17;101791.59;5076476;28;45543;-49
2022/03/07 01:02:33;;;;;;;;;18.25;18.25;;;;;20.49;27.09;101779.47;5077047;28;45577;-52
2022/03/07 01:05:00;;;;;;;;;20.75;19.50;;;;;20.49;27.24;101776.84;5077629;27;45539;-51
2022/03/07 01:07:26;;;;;;;;;21.75;19.75;;;;;20.44;27.36;101777.03;5077741;27;45386;-52
2022/03/07 01:09:51;;;;;;;;;22.25;19.00;;;;;20.46;27.29;101776.94;5077921;27;45310;-48
2022/03/07 01:12:17;;;;;;;;;20.00;20.00;;;;;20.43;27.46;101783.19;5078256;27;45236;-47
2022/03/07 01:14:42;;;;;;;;;21.00;18.25;;;;;20.39;27.20;101782.47;5077501;27;46103;-52
2022/03/07 01:17:08;;;;;;;;;20.00;18.75;;;;;20.38;26.81;101775.50;5077495;28;45377;-51
2022/03/07 01:19:33;;;;;;;;;22.00;18.50;;;;;20.35;26.82;101777.38;5076584;27;45356;-49
2022/03/07 01:21:59;;;;;;;;;20.50;19.50;;;;;20.33;27.36;101777.47;5077774;27;45291;-51
2022/03/07 01:24:24;;;;;;;;;22.00;20.50;;;;;20.31;26.94;101779.28;5077465;27;46090;-51
2022/03/07 01:26:49;;;;;;;;;21.75;20.50;;;;;20.30;27.20;101782.84;5077827;27;45658;-49
2022/03/07 01:29:15;;;;;;;;;21.25;20.25;;;;;20.28;26.71;101774.13;5077886;27;45280;-49
2022/03/07 01:31:40;;;;;;;;;21.75;18.00;;;;;20.26;27.18;101775.97;5077780;27;45616;-50
2022/03/07 01:34:06;;;;;;;;;20.00;18.75;;;;;20.23;26.77;101770.81;5077055;27;45444;-50
2022/03/07 01:36:31;;;;;;;;;20.00;18.75;;;;;20.22;26.66;101771.75;5077366;27;45268;-52
2022/03/07 01:38:57;;;;;;;;;22.00;19.25;;;;;20.19;27.18;101777.13;5076160;28;45444;-48
2022/03/07 01:41:22;;;;;;;;;19.00;18.00;;;;;20.17;27.24;101766.69;5077541;27;45283;-49
2022/03/07 01:43:47;;;;;;;;;17.00;17.00;;;;;20.16;26.92;101764.97;5076132;28;45995;-47
2022/03/07 01:46:13;;;;;;;;;17.75;16.50;;;;;20.15;26.66;101773.78;5075825;28;45340;-46
2022/03/07 01:48:38;;;;;;;;;18.00;15.75;;;;;20.15;26.89;101765.00;5077129;27;45382;-51
2022/03/07 01:51:07;;;;;;;;;18.00;18.00;;;;;20.17;27.35;101765.81;5077393;27;45311;-52
2022/03/07 01:53:32;;;;;;;;;20.00;17.50;;;;;20.18;26.98;101767.53;5076936;27;46385;-47
2022/03/07 01:55:57;;;;;;;;;15.75;15.50;;;;;20.23;27.31;101762.91;5077155;27;45370;-51
2022/03/07 01:58:23;;;;;;;;;17.25;16.50;;;;;20.28;27.11;101766.25;5093129;27;45304;-50
2022/03/07 02:00:48;;;;;;;;;17.50;17.50;;;;;20.33;27.02;101764.31;5077691;27;45235;-51
2022/03/07 02:03:14;;;;;;;;;18.50;18.00;;;;;20.38;27.37;101759.69;5076864;28;45451;-48
2022/03/07 02:05:41;;;;;;;;;17.75;16.75;;;;;20.45;27.17;101754.19;5076904;27;45310;-47
2022/03/07 02:08:07;;;;;;;;;17.75;15.00;;;;;20.48;27.18;101751.41;5075768;27;45387;-52
2022/03/07 02:10:33;;;;;;;;;19.25;17.75;;;;;20.54;26.73;101743.28;5077109;28;45456;-52
2022/03/07 02:12:58;;;;;;;;;18.75;17.00;;;;;20.59;26.91;101751.00;5076636;27;45513;-48
2022/03/07 02:15:24;;;;;;;;;20.75;17.75;;;;;20.63;27.21;101747.28;5076628;28;45425;-47
2022/03/07 02:17:49;;;;;;;;;18.50;18.25;;;;;20.65;26.97;101743.69;5077094;27;45395;-48
2022/03/07 02:20:15;;;;;;;;;15.75;15.75;;;;;20.69;27.08;101740.00;5076976;27;45554;-48
2022/03/07 02:22:42;;;;;;;;;16.00;15.25;;;;;20.74;27.34;101739.84;5076546;27;45315;-48
2022/03/07 02:25:08;;;;;;;;;20.25;17.00;;;;;20.78;27.26;101735.31;5076532;28;45248;-50
2022/03/07 02:27:34;;;;;;;;;19.25;17.75;;;;;20.81;27.19;101735.16;5076655;28;45259;-50
2022/03/07 02:30:00;;;;;;;;;17.25;15.25;;;;;20.84;26.96;101727.13;5077520;27;45207;-50
2022/03/07 02:32:27;;;;;;;;;17.00;16.75;;;;;20.87;27.09;101739.31;5082967;28;45358;-47
2022/03/07 02:34:52;;;;;;;;;15.75;14.50;;;;;20.89;26.83;101726.94;5083253;27;45880;-50
2022/03/07 02:37:18;;;;;;;;;17.75;17.75;;;;;20.91;26.55;101728.59;5083705;27;45475;-50
2022/03/07 02:39:44;;;;;;;;;19.25;14.25;;;;;20.92;26.73;101722.38;5082175;28;45408;-48
2022/03/07 02:42:10;;;;;;;;;18.25;14.75;;;;;20.94;26.94;101720.56;5083049;27;46167;-47
2022/03/07 02:44:35;;;;;;;;;15.50;14.25;;;;;20.94;27.06;101720.56;5083015;27;45472;-49
2022/03/07 02:47:00;;;;;;;;;17.25;17.25;;;;;20.94;27.03;101717.06;5083185;28;45421;-47
2022/03/07 02:49:26;;;;;;;;;13.75;13.25;;;;;20.94;27.06;101711.81;5083495;27;45600;-49
2022/03/07 02:51:51;;;;;;;;;14.00;14.00;;;;;20.92;26.66;101708.38;5083178;27;46555;-48
2022/03/07 02:54:17;;;;;;;;;15.50;15.25;;;;;20.93;26.50;101710.94;5082807;27;45338;-51
2022/03/07 02:56:44;;;;;;;;;17.50;16.00;;;;;20.93;26.90;101712.72;5083194;27;45240;-48
2022/03/07 02:59:10;;;;;;;;;17.00;15.25;;;;;20.92;26.62;101713.66;5083308;27;45169;-51
2022/03/07 03:01:35;;;;;;;;;15.75;15.50;;;;;20.91;26.75;101712.78;5081482;28;47455;-48
2022/03/07 03:04:01;;;;;;;;;15.25;14.00;;;;;20.91;26.71;101709.28;5082878;27;45374;-51
2022/03/07 03:06:26;;;;;;;;;15.00;15.00;;;;;20.88;26.42;101707.66;5083060;27;45386;-46
2022/03/07 03:08:52;;;;;;;;;15.50;13.50;;;;;20.87;26.74;101703.31;5083517;27;45441;-49
2022/03/07 03:11:17;;;;;;;;;19.25;15.75;;;;;20.84;26.52;101700.78;5082691;27;46203;-49
2022/03/07 03:13:43;;;;;;;;;15.25;14.50;;;;;20.85;26.77;101697.25;5082707;27;45489;-47
2022/03/07 03:16:08;;;;;;;;;17.00;16.00;;;;;20.83;26.35;101699.06;5082485;27;45218;-50
2022/03/07 03:18:33;;;;;;;;;15.00;13.75;;;;;20.82;26.44;101703.50;5082932;27;45278;-48
2022/03/07 03:20:59;;;;;;;;;14.75;14.25;;;;;20.81;26.87;101695.66;5082595;27;46196;-51
2022/03/07 03:23:24;;;;;;;;;17.75;16.25;;;;;20.80;26.71;101699.19;5082908;27;45795;-49
2022/03/07 03:25:51;;;;;;;;;16.00;14.75;;;;;20.79;26.88;101698.34;5083056;27;45390;-48
2022/03/07 03:28:16;;;;;;;;;12.25;11.00;;;;;20.78;26.38;101698.44;5082951;27;45602;-50
2022/03/07 03:30:42;;;;;;;;;16.25;15.25;;;;;20.76;26.60;101689.72;5081039;28;47298;-48
2022/03/07 03:33:07;;;;;;;;;19.50;18.00;;;;;20.75;26.62;101698.56;5082522;27;45227;-48
2022/03/07 03:35:36;;;;;;;;;13.75;13.50;;;;;20.74;26.54;101691.53;5082713;27;45331;-46
2022/03/07 03:38:03;;;;;;;;;18.25;17.00;;;;;20.72;26.39;101698.66;5082685;27;45456;-51
2022/03/07 03:40:29;;;;;;;;;15.00;13.50;;;;;20.71;26.55;101703.06;5082375;28;45340;-51
2022/03/07 03:42:54;;;;;;;;;19.25;15.50;;;;;20.69;26.83;101700.47;5079377;27;45397;-50
2022/03/07 03:45:20;;;;;;;;;16.75;13.25;;;;;20.67;26.82;101701.47;5078112;28;45421;-47
2022/03/07 03:47:45;;;;;;;;;16.50;15.50;;;;;20.65;26.58;101700.69;5079551;27;45837;-50
2022/03/07 03:50:13;;;;;;;;;20.75;16.00;;;;;20.62;26.63;101706.06;5078941;28;46261;-49
2022/03/07 03:52:39;;;;;;;;;12.50;11.75;;;;;20.62;26.24;101704.31;5079072;28;45325;-48
2022/03/07 03:55:06;;;;;;;;;18.50;16.50;;;;;20.61;26.79;101701.75;5079284;27;45331;-50
2022/03/07 03:57:31;;;;;;;;;17.25;12.50;;;;;20.60;26.34;101713.19;5079275;27;45314;-46
2022/03/07 03:59:57;;;;;;;;;13.75;13.50;;;;;20.57;26.42;101706.25;5078832;27;45953;-47
2022/03/07 04:02:23;;;;;;;;;16.00;14.50;;;;;20.55;26.40;101706.34;5079174;27;45387;-47
2022/03/07 04:04:48;;;;;;;;;18.50;15.00;;;;;20.51;26.57;101706.53;5078972;27;45377;-49
2022/03/07 04:07:13;;;;;;;;;13.75;13.75;;;;;20.50;26.29;101713.59;5079062;27;45580;-49
2022/03/07 04:09:39;;;;;;;;;12.50;12.25;;;;;20.48;26.55;101710.16;5078411;28;48347;-45
2022/03/07 04:12:05;;;;;;;;;14.75;14.25;;;;;20.47;26.60;101710.19;5077451;28;45799;-47
2022/03/07 04:14:31;;;;;;;;;15.25;13.75;;;;;20.42;26.85;101706.91;5078632;27;45448;-48
2022/03/07 04:16:56;;;;;;;;;16.75;15.25;;;;;20.44;26.24;101710.34;5079210;27;45437;-47
2022/03/07 04:19:22;;;;;;;;;20.00;18.50;;;;;20.40;26.69;101704.31;5078636;27;48147;-44
2022/03/07 04:21:47;;;;;;;;;20.50;19.25;;;;;20.42;26.39;101704.28;5078555;27;45316;-48
2022/03/07 04:24:13;;;;;;;;;16.25;14.00;;;;;20.38;26.12;101706.19;5078548;27;45255;-47
2022/03/07 04:26:42;;;;;;;;;19.00;17.75;;;;;20.36;26.13;101710.66;5078807;27;45584;-49
2022/03/07 04:29:08;;;;;;;;;15.75;15.25;;;;;20.36;26.02;101708.88;5078084;27;45389;-47
2022/03/07 04:31:35;;;;;;;;;18.75;17.00;;;;;20.32;26.26;101701.16;5078396;28;45488;-51
2022/03/07 04:34:01;;;;;;;;;20.00;17.25;;;;;20.30;26.28;101703.88;5078419;27;45172;-49
2022/03/07 04:36:26;;;;;;;;;14.25;14.25;;;;;20.26;26.06;101701.41;5078903;27;45169;-48
2022/03/07 04:38:52;;;;;;;;;17.75;17.75;;;;;20.27;26.63;101709.25;5078090;27;46146;-47
2022/03/07 04:41:17;;;;;;;;;18.00;17.50;;;;;20.26;26.31;101711.94;5078206;27;45259;-48
2022/03/07 04:43:43;;;;;;;;;19.00;14.50;;;;;20.21;26.09;101714.78;5078305;28;45478;-49
2022/03/07 04:46:09;;;;;;;;;12.25;11.00;;;;;20.20;26.05;101713.91;5078649;27;45241;-48
2022/03/07 04:48:35;;;;;;;;;16.75;16.25;;;;;20.19;26.52;101717.44;5077909;27;45553;-48
2022/03/07 04:51:01;;;;;;;;;16.00;16.00;;;;;20.17;26.34;101716.66;5078115;27;45909;-46
2022/03/07 04:53:26;;;;;;;;;17.50;16.00;;;;;20.15;26.42;101717.63;5078240;27;45355;-47
2022/03/07 04:55:51;;;;;;;;;15.25;15.25;;;;;20.14;26.46;101723.81;5078344;27;45611;-51
2022/03/07 04:58:17;;;;;;;;;16.25;15.75;;;;;20.09;26.19;101710.81;5076453;28;45941;-48
2022/03/07 05:00:42;;;;;;;;;14.50;14.00;;;;;20.11;26.72;101716.06;5077858;27;45496;-48
2022/03/07 05:03:07;;;;;;;;;17.75;17.00;;;;;20.08;26.46;101723.16;5078034;27;45502;-49
2022/03/07 05:05:33;;;;;;;;;16.00;15.00;;;;;20.05;26.66;101715.38;5078103;27;45814;-48
2022/03/07 05:07:58;;;;;;;;;16.25;15.25;;;;;20.05;26.37;101725.88;5078116;27;45365;-48
2022/03/07 05:10:24;;;;;;;;;15.75;15.50;;;;;20.04;26.43;101729.44;5077753;27;45449;-47
2022/03/07 05:12:49;;;;;;;;;14.50;14.50;;;;;20.02;26.40;101720.75;5077708;27;45493;-48
2022/03/07 05:15:14;;;;;;;;;16.00;16.00;;;;;20.01;26.34;101712.91;5077732;27;45513;-49
2022/03/07 05:17:45;;;;;;;;;15.25;15.00;;;;;20.01;26.34;101716.38;5076351;28;46373;-50
2022/03/07 05:20:12;;;;;;;;;15.25;13.75;;;;;19.98;26.14;101713.03;5077638;28;45994;-46
2022/03/07 05:22:41;;;;;;;;;15.25;15.25;;;;;19.97;26.46;101712.19;5077793;27;45405;-48
2022/03/07 05:25:07;;;;;;;;;17.50;16.00;;;;;19.96;26.42;101720.13;5077882;27;45251;-47
2022/03/07 05:27:32;;;;;;;;;16.00;16.00;;;;;19.96;26.40;101715.72;5077380;28;46142;-48
2022/03/07 05:29:58;;;;;;;;;15.25;13.50;;;;;19.92;26.42;101714.13;5076505;28;45320;-49
2022/03/07 05:32:23;;;;;;;;;18.00;17.00;;;;;19.92;26.65;101719.38;5077557;27;45374;-51
2022/03/07 05:34:49;;;;;;;;;16.25;16.25;;;;;19.92;26.42;101724.66;5077795;28;45668;-50
2022/03/07 05:37:14;;;;;;;;;15.75;15.00;;;;;19.92;26.54;101729.91;5077189;27;46070;-50
2022/03/07 05:39:40;;;;;;;;;15.25;14.50;;;;;19.90;26.11;101723.84;5077154;27;45247;-49
2022/03/07 05:42:06;;;;;;;;;16.50;14.75;;;;;19.87;26.27;101721.34;5077342;27;45567;-46
2022/03/07 05:44:31;;;;;;;;;18.75;17.00;;;;;19.87;26.64;101719.56;5077967;27;45477;-47
2022/03/07 05:46:57;;;;;;;;;13.25;13.25;;;;;19.85;26.43;101723.16;5077389;27;46281;-48
2022/03/07 05:49:22;;;;;;;;;17.50;16.00;;;;;19.85;26.30;101724.00;5077155;28;45353;-49
2022/03/07 05:51:47;;;;;;;;;20.50;15.00;;;;;19.85;26.38;101723.16;5077250;27;45427;-47
2022/03/07 05:54:13;;;;;;;;;17.00;14.67;;;;;19.83;26.72;101724.97;5077219;27;45446;-50
2022/03/07 05:56:38;;;;;;;;;13.50;12.25;;;;;19.81;26.78;101721.53;5076753;27;46116;-47
2022/03/07 05:59:04;;;;;;;;;16.25;13.25;;;;;19.78;26.61;101723.41;5077043;27;45455;-51
2022/03/07 06:01:29;;;;;;;;;20.00;16.00;;;;;19.78;26.29;101722.53;5077506;27;45542;-48
2022/03/07 06:03:54;;;;;;;;;16.25;16.25;;;;;19.75;26.38;101728.75;5077222;27;45579;-48
2022/03/07 06:06:20;;;;;;;;;18.50;17.00;;;;;19.75;26.86;101734.03;5076128;28;46016;-48
2022/03/07 06:08:45;;;;;;;;;15.25;15.00;;;;;19.76;26.76;101733.13;5076925;27;45403;-51
2022/03/07 06:11:14;;;;;;;;;13.00;13.00;;;;;19.73;26.56;101724.47;5075892;28;45331;-51
2022/03/07 06:13:39;;;;;;;;;16.75;16.00;;;;;19.74;26.84;101732.31;5075819;28;45616;-48
2022/03/07 06:16:05;;;;;;;;;15.75;13.25;;;;;19.73;26.62;101727.97;5076444;27;45287;-49
2022/03/07 06:18:30;;;;;;;;;12.75;12.75;;;;;19.75;26.55;101727.88;5077058;27;45377;-47
2022/03/07 06:20:56;;;;;;;;;16.00;14.75;;;;;19.82;26.70;101733.78;5077017;27;45543;-51
2022/03/07 06:23:22;;;;;;;;;19.25;15.50;;;;;19.87;26.69;101737.13;5076837;27;45337;-47
2022/03/07 06:25:47;;;;;;;;;11.25;11.25;;;;;19.91;27.35;101733.44;5076434;27;47054;-48
2022/03/07 06:28:14;;;;;;;;;14.50;12.25;;;;;19.97;26.60;101743.75;5076457;27;45359;-48
2022/03/07 06:30:40;;;;;;;;;13.25;13.25;;;;;20.02;26.98;101731.25;5076612;27;45467;-49
2022/03/07 06:33:05;;;;;;;;;22.50;19.25;;;;;20.08;26.53;101738.06;5076771;27;45538;-48
2022/03/07 06:35:30;;;;;;;;;16.50;16.00;;;;;20.11;26.44;101737.09;5076491;27;45410;-48
2022/03/07 06:37:56;;;;;;;;;19.25;18.00;;;;;20.13;26.42;101737.88;5076525;27;45410;-48
2022/03/07 06:40:22;;;;;;;;;16.75;16.75;;;;;20.16;26.16;101740.41;5076586;27;45263;-50
2022/03/07 06:42:48;;;;;;;;;19.25;16.75;;;;;20.21;26.35;101738.47;5076799;27;45189;-44
2022/03/07 06:45:16;;;;;;;;;14.50;14.50;;;;;20.24;26.74;101741.81;5076412;27;46137;-44
2022/03/07 06:47:43;;;;;;;;;19.00;17.00;;;;;20.28;26.04;101741.72;5076317;27;45424;-48
2022/03/07 06:50:09;;;;;;;;;15.25;15.25;;;;;20.32;26.55;101751.19;5076471;27;45374;-45
2022/03/07 06:52:35;;;;;;;;;19.00;15.25;;;;;20.34;26.47;101749.34;5076761;27;45840;-47
2022/03/07 06:55:00;;;;;;;;;15.75;14.75;;;;;20.36;26.17;101753.63;5076150;28;45474;-47
2022/03/07 06:57:26;;;;;;;;;13.50;12.50;;;;;20.38;26.55;101743.88;5076360;27;45420;-45
2022/03/07 06:59:51;;;;;;;;;15.50;15.00;;;;;20.41;26.42;101747.31;5075058;28;45364;-49
2022/03/07 07:02:17;;;;;;;;;13.00;12.75;;;;;20.42;26.14;101744.63;5076487;27;45614;-47
2022/03/07 07:04:43;;;;;;;;;17.75;16.75;;;;;20.42;26.18;101749.03;5076001;27;46568;-46
2022/03/07 07:07:08;;;;;;;;;11.25;11.25;;;;;20.40;26.54;101741.19;5076167;27;45366;-46
2022/03/07 07:09:34;;;;;;;;;13.75;13.75;;;;;20.42;25.86;101746.41;5075312;28;45654;-46
2022/03/07 07:11:59;;;;;;;;;13.25;11.50;;;;;20.42;26.24;101741.16;5076423;27;45534;-46
2022/03/07 07:14:25;;;;;;;;;15.50;15.50;;;;;20.43;26.14;101745.50;5075773;28;45400;-50
2022/03/07 07:16:50;;;;;;;;;12.50;12.50;;;;;20.41;25.95;101742.06;5076112;27;45168;-47
2022/03/07 07:19:15;;;;;;;;;12.50;12.00;;;;;20.42;26.54;101746.41;5079659;27;45310;-47
2022/03/07 07:21:41;;;;;;;;;15.50;15.00;;;;;20.41;25.89;101734.16;5078187;27;45534;-46
2022/03/07 07:24:07;;;;;;;;;12.75;12.00;;;;;20.41;26.39;101737.63;5079418;28;46551;-45
2022/03/07 07:26:32;;;;;;;;;15.25;13.75;;;;;20.39;26.42;101734.25;5079736;27;45444;-46
2022/03/07 07:28:58;;;;;;;;;15.75;14.50;;;;;20.41;26.54;101736.78;5079485;27;45325;-45
2022/03/07 07:31:23;;;;;;;;;13.00;13.00;;;;;20.41;26.02;101736.78;5078510;28;45320;-50
2022/03/07 07:33:49;;;;;;;;;11.75;11.75;;;;;20.39;26.54;101740.34;5079060;27;47236;-50
2022/03/07 07:36:14;;;;;;;;;16.00;13.00;;;;;20.42;26.47;101741.97;5079204;27;45438;-45
2022/03/07 07:38:40;;;;;;;;;13.00;13.00;;;;;20.42;26.08;101751.69;5079304;28;45506;-48
2022/03/07 07:41:05;;;;;;;;;16.50;14.25;;;;;20.42;26.55;101746.41;5079754;27;45534;-46
2022/03/07 07:43:30;;;;;;;;;14.00;14.00;;;;;20.39;26.20;101752.66;5079194;27;46600;-48
2022/03/07 07:45:56;;;;;;;;;13.50;13.50;;;;;20.41;26.53;101752.59;5079135;27;45298;-44
2022/03/07 07:48:21;;;;;;;;;14.50;14.00;;;;;20.40;26.35;101751.72;5079341;27;45311;-44
2022/03/07 07:50:46;;;;;;;;;16.50;14.50;;;;;20.40;26.28;101751.72;5079423;27;45165;-46
2022/03/07 07:53:12;;;;;;;;;15.25;12.00;;;;;20.37;26.35;101746.59;5078782;27;46189;-46
2022/03/07 07:55:37;;;;;;;;;13.25;12.50;;;;;20.34;26.29;101750.19;5079255;27;45313;-48
2022/03/07 07:58:02;;;;;;;;;16.50;12.75;;;;;20.35;26.20;101748.44;5079139;27;45932;-47
2022/03/07 08:00:28;;;;;;;;;15.67;14.00;;;;;20.34;26.46;101746.72;5094982;27;45823;-47
2022/03/07 08:02:53;;;;;;;;;14.75;12.50;;;;;20.32;26.35;101748.53;5078631;27;45327;-48
2022/03/07 08:05:20;;;;;;;;;14.50;11.25;;;;;20.31;26.48;101746.81;5078781;27;45374;-49
2022/03/07 08:07:47;;;;;;;;;14.75;11.75;;;;;20.31;26.39;101742.44;5078852;28;45349;-51
2022/03/07 08:10:15;;;;;;;;;14.25;14.25;;;;;20.30;26.29;101747.75;5079074;27;45588;-50
2022/03/07 08:12:41;;;;;;;;;16.25;16.25;;;;;20.28;26.51;101745.19;5077201;28;48106;-50
2022/03/07 08:15:11;;;;;;;;;14.25;12.25;;;;;20.28;26.36;101739.06;5077613;28;45317;-51
2022/03/07 08:17:39;;;;;;;;;13.75;12.00;;;;;20.27;26.40;101740.84;5079163;27;45527;-48
2022/03/07 08:20:06;;;;;;;;;13.25;12.25;;;;;20.25;26.63;101734.75;5078895;27;45643;-49
2022/03/07 08:22:32;;;;;;;;;8.25;7.50;;;;;20.23;26.52;101736.59;5076205;27;46075;-49
2022/03/07 08:24:57;;;;;;;;;16.25;13.25;;;;;20.22;26.74;101738.38;5077965;27;45230;-49
2022/03/07 08:27:23;;;;;;;;;15.00;13.00;;;;;20.21;26.90;101738.47;5078259;27;45396;-52
2022/03/07 08:29:48;;;;;;;;;13.50;13.50;;;;;20.20;26.33;101739.38;5078233;27;45223;-49
2022/03/07 08:32:14;;;;;;;;;16.75;13.75;;;;;20.20;26.13;101734.94;5078292;27;46314;-52
2022/03/07 08:34:44;;;;;;;;;14.00;14.00;;;;;20.16;26.57;101741.28;5078526;27;45330;-50
2022/03/07 08:37:09;;;;;;;;;15.25;15.25;;;;;20.17;26.61;101740.34;5077441;27;45469;-52
2022/03/07 08:39:35;;;;;;;;;16.75;14.25;;;;;20.14;26.38;101737.84;5078531;27;45357;-51
2022/03/07 08:42:00;;;;;;;;;17.50;16.00;;;;;20.14;26.35;101732.56;5078282;27;46156;-50
2022/03/07 08:44:26;;;;;;;;;16.00;14.50;;;;;20.11;26.48;101731.84;5076885;27;45861;-50
2022/03/07 08:46:51;;;;;;;;;16.25;14.25;;;;;20.11;26.42;101729.22;5077054;27;45285;-49
2022/03/07 08:49:16;;;;;;;;;10.50;10.00;;;;;20.06;26.00;101714.44;5078325;27;45245;-49
2022/03/07 08:51:44;;;;;;;;;17.75;16.75;;;;;20.07;26.04;101723.19;5077950;27;45190;-48
2022/03/07 08:54:10;;;;;;;;;16.00;15.00;;;;;20.04;25.85;101721.53;5077062;27;45259;-52
2022/03/07 08:56:36;;;;;;;;;15.75;13.50;;;;;20.04;25.95;101720.69;5076952;27;45442;-49
2022/03/07 08:59:02;;;;;;;;;15.75;15.00;;;;;20.03;25.94;101725.09;5078446;27;45390;-50
2022/03/07 09:01:27;;;;;;;;;16.25;13.75;;;;;20.01;25.75;101716.38;5076492;27;46196;-49
2022/03/07 09:03:53;;;;;;;;;14.25;11.75;;;;;20.02;25.93;101719.91;5077773;27;45378;-47
2022/03/07 09:06:18;;;;;;;;;18.25;17.75;;;;;20.00;25.79;101719.97;5077793;27;45381;-48
2022/03/07 09:08:44;;;;;;;;;12.50;11.50;;;;;19.99;26.20;101720.88;5078107;27;45354;-48
2022/03/07 09:11:09;;;;;;;;;13.75;13.75;;;;;19.96;26.33;101721.00;5077916;27;45402;-47
2022/03/07 09:13:34;;;;;;;;;15.00;14.00;;;;;19.97;25.67;101717.44;5077464;27;45317;-46
2022/03/07 09:16:00;;;;;;;;;14.25;14.25;;;;;19.96;26.08;101715.72;5077549;27;45416;-46
2022/03/07 09:18:26;;;;;;;;;16.25;16.25;;;;;19.86;25.85;101704.69;5077879;27;45492;-45
2022/03/07 09:20:51;;;;;;;;;15.00;13.00;;;;;19.93;25.72;101721.97;5077354;27;46424;-47
2022/03/07 09:23:17;;;;;;;;;13.75;13.75;;;;;19.93;25.69;101713.22;5077426;28;45276;-45
2022/03/07 09:25:42;;;;;;;;;14.50;12.50;;;;;19.93;25.83;101721.97;5077870;27;45293;-46
2022/03/07 09:28:08;;;;;;;;;18.75;16.50;;;;;19.95;26.08;101716.66;5077843;27;45288;-45
2022/03/07 09:30:33;;;;;;;;;15.25;14.00;;;;;19.96;25.90;101725.38;5077390;27;46122;-46
2022/03/07 09:33:03;;;;;;;;;16.75;14.75;;;;;19.95;25.75;101727.16;5077425;27;45308;-48
2022/03/07 09:35:29;;;;;;;;;15.50;15.00;;;;;19.94;26.14;101712.28;5077450;27;45449;-46
2022/03/07 09:37:54;;;;;;;;;15.50;14.50;;;;;19.94;25.98;101714.94;5077570;27;45328;-47
2022/03/07 09:40:20;;;;;;;;;14.75;12.75;;;;;19.92;26.24;101722.88;5076128;27;45463;-47
2022/03/07 09:42:46;;;;;;;;;14.25;14.00;;;;;19.92;25.89;101720.25;5077233;27;45394;-47
2022/03/07 09:45:13;;;;;;;;;14.75;13.50;;;;;19.90;26.08;101716.81;5077683;27;45396;-49
2022/03/07 09:47:40;;;;;;;;;14.25;14.25;;;;;19.87;25.97;101706.41;5077503;27;45643;-47
2022/03/07 09:50:06;;;;;;;;;12.50;12.00;;;;;19.91;26.13;101712.41;5077054;27;46088;-47
2022/03/07 09:52:32;;;;;;;;;16.25;14.50;;;;;19.91;26.09;101708.00;5077060;28;45989;-47
2022/03/07 09:54:58;;;;;;;;;16.50;15.75;;;;;19.91;25.82;101710.66;5077016;27;45251;-45
2022/03/07 09:57:24;;;;;;;;;18.50;15.00;;;;;19.92;26.35;101703.59;5076082;27;45370;-46
2022/03/07 09:59:49;;;;;;;;;14.50;11.00;;;;;19.93;25.95;101700.06;5076856;27;46101;-47
2022/03/07 10:02:19;;;;;;;;;14.25;14.00;;;;;19.93;25.83;101700.06;5075849;27;45323;-45
2022/03/07 10:04:45;;;;;;;;;16.25;16.25;;;;;19.92;26.39;101703.59;5075890;28;45198;-46
2022/03/07 10:07:12;;;;;;;;;14.00;13.50;;;;;19.93;25.72;101693.03;5077647;27;45228;-45
2022/03/07 10:09:38;;;;;;;;;12.50;11.75;;;;;19.92;26.34;101703.59;5076891;27;46542;-46
2022/03/07 10:12:04;;;;;;;;;16.25;16.00;;;;;19.93;25.78;101695.66;5075473;28;45351;-46
2022/03/07 10:14:46;;;;;;;;;15.00;15.00;;;;;19.92;25.75;101693.06;5076905;27;46007;-46
2022/03/07 10:17:25;;;;;;;;;13.50;12.75;;;;;19.91;26.19;101692.22;5077372;27;45577;-46
2022/03/07 10:19:53;;;;;;;;;14.50;14.50;;;;;19.95;26.20;101692.97;5076703;27;47124;-46
2022/03/07 10:22:27;;;;;;;;;12.00;10.00;;;;;19.98;25.87;101682.31;5076595;27;45704;-47
2022/03/07 10:25:05;;;;;;;;;13.50;12.25;;;;;20.05;25.86;101677.69;5076795;28;45330;-45
2022/03/07 10:27:33;;;;;;;;;13.75;12.25;;;;;20.09;25.67;101673.97;5075486;27;45585;-45
2022/03/07 10:29:59;;;;;;;;;15.75;14.75;;;;;20.15;25.65;101681.66;5076409;27;45576;-48
2022/03/07 10:32:25;;;;;;;;;15.50;13.25;;;;;20.18;25.42;101675.41;5076472;27;45294;-47
2022/03/07 10:34:51;;;;;;;;;14.25;14.25;;;;;20.25;25.41;101676.84;5076595;27;45361;-45
2022/03/07 10:37:16;;;;;;;;;17.25;15.25;;;;;20.28;25.19;101678.53;5076756;27;45629;-45
2022/03/07 10:39:47;;;;;;;;;15.25;14.50;;;;;20.31;25.31;101679.25;5075281;28;47370;-49
2022/03/07 10:42:17;;;;;;;;;15.25;15.00;;;;;20.33;24.98;101677.41;5076648;27;45357;-46
2022/03/07 10:44:43;;;;;;;;;14.00;12.50;;;;;20.36;25.05;101672.00;5076818;27;45229;-45
2022/03/07 10:47:11;;;;;;;;;13.75;13.75;;;;;20.42;25.09;101667.41;5076726;27;45508;-45
2022/03/07 10:49:57;;;;;;;;;14.25;12.50;;;;;20.46;25.25;101661.97;5076153;27;45548;-45
2022/03/07 10:52:23;;;;;;;;;11.50;11.50;;;;;20.48;25.32;101659.25;5078612;27;45375;-45
2022/03/07 10:54:49;;;;;;;;;14.00;12.75;;;;;20.51;25.28;101659.13;5078548;28;45318;-46
2022/03/07 10:57:18;;;;;;;;;14.00;13.75;;;;;20.54;24.71;101651.09;5080548;27;45588;-46
2022/03/07 10:59:44;;;;;;;;;10.00;9.75;;;;;20.52;25.29;101645.88;5080020;27;46476;-46
2022/03/07 11:02:13;;;;;;;;;13.00;13.00;;;;;20.55;24.94;101661.56;5079837;27;45334;-45
2022/03/07 11:04:40;;;;;;;;;11.50;11.50;;;;;20.54;24.75;101659.84;5079969;27;45344;-44